createdAt,value
2017-05-21T00:00:00.751Z,1021.36
2017-05-21T00:00:41.634Z,1021.42
2017-05-21T00:01:22.530Z,1021.42
2017-05-21T00:02:03.418Z,1021.39
2017-05-21T00:02:44.296Z,1021.41
2017-05-21T00:03:25.187Z,1021.45
2017-05-21T00:04:06.074Z,1021.44
2017-05-21T00:04:46.955Z,1021.46
2017-05-21T00:05:27.845Z,1021.46
2017-05-21T00:06:08.731Z,1021.46
2017-05-21T00:06:49.626Z,1021.45
2017-05-21T00:07:30.504Z,1021.44
2017-05-21T00:08:11.392Z,1021.46
2017-05-21T00:08:52.313Z,1021.43
2017-05-21T00:09:33.197Z,1021.49
2017-05-21T00:10:14.099Z,1021.42
2017-05-21T00:10:54.989Z,1021.45
2017-05-21T00:11:35.888Z,1021.44
2017-05-21T00:12:16.779Z,1021.45
2017-05-21T00:12:57.674Z,1021.41
2017-05-21T00:13:38.553Z,1021.41
2017-05-21T00:14:19.420Z,1021.4
2017-05-21T00:15:00.955Z,1021.4
2017-05-21T00:15:41.212Z,1021.45
2017-05-21T00:16:22.096Z,1021.47
2017-05-21T00:17:02.985Z,1021.46
2017-05-21T00:17:43.871Z,1021.46
2017-05-21T00:18:24.773Z,1021.46
2017-05-21T00:19:05.663Z,1021.47
2017-05-21T00:19:46.549Z,1021.44
2017-05-21T00:20:27.432Z,1021.42
2017-05-21T00:21:08.349Z,1021.47
2017-05-21T00:21:49.233Z,1021.42
2017-05-21T00:22:30.111Z,1021.47
2017-05-21T00:23:10.996Z,1021.43
2017-05-21T00:23:51.895Z,1021.43
2017-05-21T00:24:32.777Z,1021.42
2017-05-21T00:25:13.670Z,1021.44
2017-05-21T00:25:54.550Z,1021.47
2017-05-21T00:26:35.430Z,1021.47
2017-05-21T00:27:16.318Z,1021.49
2017-05-21T00:27:57.205Z,1021.5
2017-05-21T00:28:38.110Z,1021.49
2017-05-21T00:29:19.009Z,1021.51
2017-05-21T00:29:59.900Z,1021.51
2017-05-21T00:30:40.807Z,1021.52
2017-05-21T00:31:21.703Z,1021.53
2017-05-21T00:32:02.599Z,1021.5
2017-05-21T00:32:43.485Z,1021.5
2017-05-21T00:33:24.368Z,1021.55
2017-05-21T00:34:05.264Z,1021.49
2017-05-21T00:34:46.153Z,1021.5
2017-05-21T00:35:27.031Z,1021.54
2017-05-21T00:36:07.938Z,1021.47
2017-05-21T00:36:48.820Z,1021.51
2017-05-21T00:37:29.702Z,1021.51
2017-05-21T00:38:10.592Z,1021.54
2017-05-21T00:38:51.479Z,1021.54
2017-05-21T00:39:32.352Z,1021.51
2017-05-21T00:40:13.235Z,1021.56
2017-05-21T00:40:54.119Z,1021.56
2017-05-21T00:41:35.005Z,1021.53
2017-05-21T00:42:15.913Z,1021.46
2017-05-21T00:42:56.816Z,1021.53
2017-05-21T00:43:37.714Z,1021.48
2017-05-21T00:44:18.617Z,1021.52
2017-05-21T00:45:00.277Z,1021.47
2017-05-21T00:45:41.168Z,1021.47
2017-05-21T00:46:22.058Z,1021.47
2017-05-21T00:47:02.953Z,1021.49
2017-05-21T00:47:43.842Z,1021.49
2017-05-21T00:48:24.714Z,1021.46
2017-05-21T00:49:05.593Z,1021.42
2017-05-21T00:49:46.491Z,1021.45
2017-05-21T00:50:27.379Z,1021.48
2017-05-21T00:51:08.264Z,1021.47
2017-05-21T00:51:49.152Z,1021.44
2017-05-21T00:52:30.037Z,1021.48
2017-05-21T00:53:10.932Z,1021.46
2017-05-21T00:53:51.829Z,1021.48
2017-05-21T00:54:32.705Z,1021.49
2017-05-21T00:55:13.599Z,1021.5
2017-05-21T00:55:54.478Z,1021.51
2017-05-21T00:56:35.365Z,1021.52
2017-05-21T00:57:16.254Z,1021.5
2017-05-21T00:57:57.137Z,1021.5
2017-05-21T00:58:38.027Z,1021.5
2017-05-21T00:59:18.923Z,1021.53
2017-05-21T00:59:59.816Z,1021.51
2017-05-21T01:00:40.705Z,1021.48
2017-05-21T01:01:21.589Z,1021.53
2017-05-21T01:02:02.478Z,1021.52
2017-05-21T01:02:43.365Z,1021.54
2017-05-21T01:03:24.269Z,1021.53
2017-05-21T01:04:05.159Z,1021.53
2017-05-21T01:04:46.038Z,1021.55
2017-05-21T01:05:26.926Z,1021.53
2017-05-21T01:06:09.343Z,1021.53
2017-05-21T01:06:50.234Z,1021.54
2017-05-21T01:07:31.127Z,1021.52
2017-05-21T01:08:12.018Z,1021.56
2017-05-21T01:08:52.901Z,1021.52
2017-05-21T01:09:34.578Z,1021.53
2017-05-21T01:10:15.385Z,1021.57
2017-05-21T01:10:56.296Z,1021.57
2017-05-21T01:11:37.208Z,1021.56
2017-05-21T01:12:18.118Z,1021.58
2017-05-21T01:12:59.027Z,1021.6
2017-05-21T01:13:39.906Z,1021.62
2017-05-21T01:14:20.795Z,1021.58
2017-05-21T01:15:01.692Z,1021.6
2017-05-21T01:15:42.575Z,1021.58
2017-05-21T01:16:23.466Z,1021.58
2017-05-21T01:17:04.342Z,1021.58
2017-05-21T01:17:45.227Z,1021.53
2017-05-21T01:18:26.115Z,1021.58
2017-05-21T01:19:07.002Z,1021.58
2017-05-21T01:19:47.888Z,1021.55
2017-05-21T01:20:28.786Z,1021.57
2017-05-21T01:21:09.683Z,1021.6
2017-05-21T01:21:50.581Z,1021.59
2017-05-21T01:22:31.450Z,1021.62
2017-05-21T01:23:12.330Z,1021.61
2017-05-21T01:23:53.212Z,1021.62
2017-05-21T01:24:34.100Z,1021.61
2017-05-21T01:25:14.996Z,1021.58
2017-05-21T01:25:55.887Z,1021.61
2017-05-21T01:26:36.781Z,1021.61
2017-05-21T01:27:17.678Z,1021.62
2017-05-21T01:27:58.553Z,1021.61
2017-05-21T01:28:39.438Z,1021.59
2017-05-21T01:29:20.330Z,1021.65
2017-05-21T01:30:01.249Z,1021.58
2017-05-21T01:30:42.147Z,1021.61
2017-05-21T01:31:23.037Z,1021.64
2017-05-21T01:32:03.930Z,1021.62
2017-05-21T01:32:44.824Z,1021.61
2017-05-21T01:33:25.709Z,1021.65
2017-05-21T01:34:06.659Z,1021.62
2017-05-21T01:34:47.546Z,1021.64
2017-05-21T01:35:28.424Z,1021.65
2017-05-21T01:36:09.317Z,1021.61
2017-05-21T01:36:50.208Z,1021.61
2017-05-21T01:37:31.085Z,1021.63
2017-05-21T01:38:11.978Z,1021.56
2017-05-21T01:38:52.886Z,1021.58
2017-05-21T01:39:33.755Z,1021.62
2017-05-21T01:40:14.639Z,1021.59
2017-05-21T01:40:55.534Z,1021.59
2017-05-21T01:41:36.419Z,1021.59
2017-05-21T01:42:17.291Z,1021.58
2017-05-21T01:42:58.169Z,1021.59
2017-05-21T01:43:39.064Z,1021.61
2017-05-21T01:44:19.964Z,1021.57
2017-05-21T01:45:00.843Z,1021.63
2017-05-21T01:45:41.716Z,1021.61
2017-05-21T01:46:22.604Z,1021.6
2017-05-21T01:47:03.501Z,1021.59
2017-05-21T01:47:44.382Z,1021.61
2017-05-21T01:48:25.271Z,1021.63
2017-05-21T01:49:06.160Z,1021.65
2017-05-21T01:49:47.033Z,1021.61
2017-05-21T01:50:27.905Z,1021.59
2017-05-21T01:51:08.799Z,1021.61
2017-05-21T01:51:49.698Z,1021.62
2017-05-21T01:52:30.570Z,1021.58
2017-05-21T01:53:11.445Z,1021.6
2017-05-21T01:53:52.359Z,1021.59
2017-05-21T01:54:33.240Z,1021.61
2017-05-21T01:55:14.118Z,1021.64
2017-05-21T01:55:54.988Z,1021.62
2017-05-21T01:56:35.901Z,1021.66
2017-05-21T01:57:16.787Z,1021.59
2017-05-21T01:57:57.668Z,1021.58
2017-05-21T01:58:38.569Z,1021.62
2017-05-21T01:59:19.481Z,1021.67
2017-05-21T02:00:00.380Z,1021.64
2017-05-21T02:00:41.268Z,1021.63
2017-05-21T02:01:22.146Z,1021.65
2017-05-21T02:02:03.023Z,1021.65
2017-05-21T02:02:43.947Z,1021.66
2017-05-21T02:03:24.813Z,1021.67
2017-05-21T02:04:05.697Z,1021.66
2017-05-21T02:04:46.590Z,1021.67
2017-05-21T02:05:27.481Z,1021.64
2017-05-21T02:06:08.357Z,1021.66
2017-05-21T02:06:49.251Z,1021.64
2017-05-21T02:07:30.190Z,1021.65
2017-05-21T02:10:00.291Z,1021.67
2017-05-21T02:10:41.172Z,1021.7
2017-05-21T02:11:22.063Z,1021.66
2017-05-21T02:12:02.951Z,1021.65
2017-05-21T02:12:43.838Z,1021.64
2017-05-21T02:13:24.733Z,1021.66
2017-05-21T02:14:05.634Z,1021.67
2017-05-21T02:14:46.519Z,1021.69
2017-05-21T02:15:27.433Z,1021.65
2017-05-21T02:16:08.319Z,1021.66
2017-05-21T02:16:49.213Z,1021.66
2017-05-21T02:17:30.109Z,1021.65
2017-05-21T02:18:10.997Z,1021.65
2017-05-21T02:18:51.870Z,1021.66
2017-05-21T02:19:32.768Z,1021.68
2017-05-21T02:20:13.653Z,1021.67
2017-05-21T02:20:54.546Z,1021.62
2017-05-21T02:21:35.443Z,1021.66
2017-05-21T02:22:16.333Z,1021.67
2017-05-21T02:22:57.223Z,1021.66
2017-05-21T02:23:38.127Z,1021.67
2017-05-21T02:24:19.010Z,1021.69
2017-05-21T02:24:59.890Z,1021.71
2017-05-21T02:25:40.781Z,1021.67
2017-05-21T02:26:21.671Z,1021.68
2017-05-21T02:27:02.559Z,1021.74
2017-05-21T02:27:43.436Z,1021.66
2017-05-21T02:28:24.333Z,1021.68
2017-05-21T02:29:05.215Z,1021.68
2017-05-21T02:29:46.101Z,1021.68
2017-05-21T02:30:27.015Z,1021.68
2017-05-21T02:31:07.906Z,1021.68
2017-05-21T02:31:48.786Z,1021.66
2017-05-21T02:32:29.650Z,1021.63
2017-05-21T02:33:10.544Z,1021.69
2017-05-21T02:33:51.429Z,1021.64
2017-05-21T02:34:32.316Z,1021.67
2017-05-21T02:35:13.205Z,1021.69
2017-05-21T02:35:54.090Z,1021.67
2017-05-21T02:36:34.969Z,1021.68
2017-05-21T02:37:15.860Z,1021.67
2017-05-21T02:37:56.798Z,1021.66
2017-05-21T02:38:37.626Z,1021.71
2017-05-21T02:39:18.520Z,1021.71
2017-05-21T02:39:59.407Z,1021.74
2017-05-21T02:40:40.304Z,1021.73
2017-05-21T02:41:21.183Z,1021.69
2017-05-21T02:42:02.084Z,1021.73
2017-05-21T02:42:42.973Z,1021.73
2017-05-21T02:43:23.860Z,1021.7
2017-05-21T02:44:04.744Z,1021.75
2017-05-21T02:44:45.639Z,1021.74
2017-05-21T02:45:26.522Z,1021.76
2017-05-21T02:46:07.398Z,1021.73
2017-05-21T02:46:48.287Z,1021.78
2017-05-21T02:47:29.184Z,1021.77
2017-05-21T02:48:10.072Z,1021.76
2017-05-21T02:48:50.962Z,1021.83
2017-05-21T02:49:31.859Z,1021.77
2017-05-21T02:50:12.741Z,1021.79
2017-05-21T02:50:53.622Z,1021.79
2017-05-21T02:51:34.502Z,1021.75
2017-05-21T02:52:15.390Z,1021.76
2017-05-21T02:52:56.307Z,1021.8
2017-05-21T02:53:37.201Z,1021.77
2017-05-21T02:54:18.099Z,1021.78
2017-05-21T02:54:58.978Z,1021.84
2017-05-21T02:55:39.856Z,1021.8
2017-05-21T02:56:20.747Z,1021.81
2017-05-21T02:57:01.639Z,1021.79
2017-05-21T02:57:42.531Z,1021.84
2017-05-21T02:58:23.420Z,1021.83
2017-05-21T02:59:04.300Z,1021.86
2017-05-21T02:59:45.205Z,1021.86
2017-05-21T03:00:26.094Z,1021.87
2017-05-21T03:01:06.990Z,1021.85
2017-05-21T03:01:47.885Z,1021.87
2017-05-21T03:02:28.779Z,1021.89
2017-05-21T03:03:09.662Z,1021.91
2017-05-21T03:03:50.559Z,1021.89
2017-05-21T03:04:31.451Z,1021.88
2017-05-21T03:05:12.347Z,1021.91
2017-05-21T03:05:53.232Z,1021.89
2017-05-21T03:06:34.121Z,1021.9
2017-05-21T03:07:15.001Z,1021.9
2017-05-21T03:07:55.883Z,1021.94
2017-05-21T03:08:36.780Z,1021.97
2017-05-21T03:09:17.668Z,1021.96
2017-05-21T03:09:58.556Z,1021.93
2017-05-21T03:10:39.441Z,1021.95
2017-05-21T03:11:20.330Z,1021.96
2017-05-21T03:12:01.229Z,1022
2017-05-21T03:12:42.101Z,1021.97
2017-05-21T03:13:22.988Z,1021.99
2017-05-21T03:14:03.893Z,1022.01
2017-05-21T03:14:44.798Z,1022.04
2017-05-21T03:15:25.696Z,1021.99
2017-05-21T03:16:07.436Z,1022
2017-05-21T03:16:48.328Z,1021.97
2017-05-21T03:17:29.216Z,1021.97
2017-05-21T03:18:10.115Z,1022.01
2017-05-21T03:18:51.008Z,1022.01
2017-05-21T03:19:31.898Z,1021.98
2017-05-21T03:20:12.791Z,1022
2017-05-21T03:20:53.653Z,1022
2017-05-21T03:23:27.970Z,1022.01
2017-05-21T03:24:08.857Z,1021.99
2017-05-21T03:24:49.753Z,1021.95
2017-05-21T03:25:30.624Z,1021.97
2017-05-21T03:26:11.509Z,1021.94
2017-05-21T03:26:52.410Z,1022
2017-05-21T03:27:33.297Z,1022
2017-05-21T03:28:14.180Z,1022
2017-05-21T03:28:55.067Z,1022.01
2017-05-21T03:29:35.948Z,1022.01
2017-05-21T03:30:16.841Z,1022.01
2017-05-21T03:30:57.717Z,1022.03
2017-05-21T03:31:38.605Z,1022.02
2017-05-21T03:32:19.483Z,1022.05
2017-05-21T03:33:00.366Z,1022.05
2017-05-21T03:33:41.265Z,1022.04
2017-05-21T03:34:22.145Z,1022.03
2017-05-21T03:35:03.041Z,1022.02
2017-05-21T03:35:43.938Z,1022.06
2017-05-21T03:36:24.832Z,1022.04
2017-05-21T03:37:05.722Z,1021.99
2017-05-21T03:37:46.619Z,1022.02
2017-05-21T03:38:27.503Z,1022.03
2017-05-21T03:39:08.398Z,1021.99
2017-05-21T03:39:49.279Z,1022.02
2017-05-21T03:40:30.167Z,1021.99
2017-05-21T03:41:11.057Z,1022
2017-05-21T03:41:51.946Z,1021.98
2017-05-21T03:42:32.826Z,1021.98
2017-05-21T03:43:13.702Z,1021.99
2017-05-21T03:43:54.583Z,1021.97
2017-05-21T03:44:35.465Z,1022.01
2017-05-21T03:45:16.360Z,1022
2017-05-21T03:45:57.239Z,1022.05
2017-05-21T03:46:38.115Z,1022.06
2017-05-21T03:47:19.000Z,1022.04
2017-05-21T03:47:59.890Z,1022.03
2017-05-21T03:48:40.777Z,1022.06
2017-05-21T03:49:21.642Z,1022.07
2017-05-21T03:50:02.533Z,1022.07
2017-05-21T03:50:43.427Z,1022.08
2017-05-21T03:51:24.315Z,1022.05
2017-05-21T03:52:05.209Z,1022.09
2017-05-21T03:52:46.103Z,1022.05
2017-05-21T03:53:26.995Z,1022.05
2017-05-21T03:54:07.908Z,1022.04
2017-05-21T03:54:48.842Z,1022.04
2017-05-21T03:55:29.732Z,1022.02
2017-05-21T03:56:10.615Z,1022.05
2017-05-21T03:56:51.547Z,1022.05
2017-05-21T03:57:32.374Z,1022.06
2017-05-21T03:58:13.267Z,1022.08
2017-05-21T03:58:54.160Z,1022.07
2017-05-21T03:59:35.052Z,1022.07
2017-05-21T04:00:15.949Z,1022.05
2017-05-21T04:00:56.836Z,1022.08
2017-05-21T04:01:37.714Z,1022.08
2017-05-21T04:02:18.606Z,1022.11
2017-05-21T04:02:59.510Z,1022.1
2017-05-21T04:03:40.402Z,1022.11
2017-05-21T04:04:21.294Z,1022.13
2017-05-21T04:05:02.183Z,1022.12
2017-05-21T04:05:43.078Z,1022.17
2017-05-21T04:06:23.968Z,1022.14
2017-05-21T04:07:04.864Z,1022.14
2017-05-21T04:07:45.755Z,1022.16
2017-05-21T04:08:26.626Z,1022.14
2017-05-21T04:09:07.520Z,1022.15
2017-05-21T04:09:48.414Z,1022.2
2017-05-21T04:10:29.299Z,1022.17
2017-05-21T04:11:10.191Z,1022.18
2017-05-21T04:11:51.093Z,1022.17
2017-05-21T04:12:31.986Z,1022.22
2017-05-21T04:13:12.880Z,1022.22
2017-05-21T04:13:53.763Z,1022.27
2017-05-21T04:14:34.642Z,1022.25
2017-05-21T04:15:15.518Z,1022.24
2017-05-21T04:15:56.406Z,1022.23
2017-05-21T04:16:37.292Z,1022.23
2017-05-21T04:17:18.203Z,1022.23
2017-05-21T04:17:59.113Z,1022.26
2017-05-21T04:18:39.989Z,1022.24
2017-05-21T04:19:20.889Z,1022.24
2017-05-21T04:20:01.775Z,1022.27
2017-05-21T04:20:42.687Z,1022.27
2017-05-21T04:21:23.578Z,1022.28
2017-05-21T04:22:04.468Z,1022.27
2017-05-21T04:22:45.347Z,1022.26
2017-05-21T04:23:26.222Z,1022.3
2017-05-21T04:24:07.116Z,1022.27
2017-05-21T04:24:48.000Z,1022.29
2017-05-21T04:25:28.890Z,1022.29
2017-05-21T04:26:09.788Z,1022.32
2017-05-21T04:26:50.671Z,1022.32
2017-05-21T04:27:31.558Z,1022.31
2017-05-21T04:28:12.452Z,1022.3
2017-05-21T04:28:53.341Z,1022.29
2017-05-21T04:29:34.225Z,1022.29
2017-05-21T04:30:15.130Z,1022.29
2017-05-21T04:30:56.019Z,1022.26
2017-05-21T04:31:36.900Z,1022.25
2017-05-21T04:32:17.790Z,1022.3
2017-05-21T04:32:58.685Z,1022.28
2017-05-21T04:33:39.618Z,1022.31
2017-05-21T04:34:20.450Z,1022.3
2017-05-21T04:35:01.351Z,1022.3
2017-05-21T04:35:42.240Z,1022.28
2017-05-21T04:36:23.141Z,1022.29
2017-05-21T04:37:04.027Z,1022.31
2017-05-21T04:37:44.932Z,1022.31
2017-05-21T04:38:25.820Z,1022.34
2017-05-21T04:39:06.706Z,1022.34
2017-05-21T04:39:47.625Z,1022.34
2017-05-21T04:40:28.487Z,1022.38
2017-05-21T04:41:09.368Z,1022.39
2017-05-21T04:41:50.258Z,1022.41
2017-05-21T04:42:31.145Z,1022.38
2017-05-21T04:43:12.031Z,1022.38
2017-05-21T04:43:52.920Z,1022.45
2017-05-21T04:44:33.815Z,1022.42
2017-05-21T04:45:14.704Z,1022.44
2017-05-21T04:45:55.595Z,1022.39
2017-05-21T04:46:36.484Z,1022.45
2017-05-21T04:47:17.371Z,1022.46
2017-05-21T04:47:58.263Z,1022.45
2017-05-21T04:48:39.153Z,1022.45
2017-05-21T04:49:20.048Z,1022.45
2017-05-21T04:50:00.936Z,1022.45
2017-05-21T04:50:41.831Z,1022.48
2017-05-21T04:51:22.724Z,1022.51
2017-05-21T04:52:03.615Z,1022.49
2017-05-21T04:52:44.503Z,1022.41
2017-05-21T04:53:25.387Z,1022.48
2017-05-21T04:54:06.279Z,1022.49
2017-05-21T04:54:47.174Z,1022.48
2017-05-21T04:55:28.062Z,1022.48
2017-05-21T04:56:08.960Z,1022.5
2017-05-21T04:56:49.872Z,1022.5
2017-05-21T04:57:30.757Z,1022.52
2017-05-21T04:58:11.659Z,1022.53
2017-05-21T04:58:52.540Z,1022.5
2017-05-21T04:59:33.432Z,1022.5
2017-05-21T05:00:14.327Z,1022.51
2017-05-21T05:00:55.209Z,1022.52
2017-05-21T05:01:36.090Z,1022.52
2017-05-21T05:02:16.970Z,1022.55
2017-05-21T05:02:57.876Z,1022.51
2017-05-21T05:03:38.764Z,1022.56
2017-05-21T05:04:19.656Z,1022.58
2017-05-21T05:05:00.553Z,1022.57
2017-05-21T05:05:41.431Z,1022.57
2017-05-21T05:06:22.307Z,1022.58
2017-05-21T05:07:03.200Z,1022.55
2017-05-21T05:07:44.091Z,1022.59
2017-05-21T05:08:24.978Z,1022.6
2017-05-21T05:09:05.872Z,1022.59
2017-05-21T05:09:46.763Z,1022.63
2017-05-21T05:10:27.652Z,1022.6
2017-05-21T05:11:08.532Z,1022.66
2017-05-21T05:11:49.432Z,1022.66
2017-05-21T05:12:30.315Z,1022.68
2017-05-21T05:13:11.245Z,1022.68
2017-05-21T05:13:52.136Z,1022.68
2017-05-21T05:14:33.021Z,1022.67
2017-05-21T05:15:13.970Z,1022.68
2017-05-21T05:15:54.857Z,1022.67
2017-05-21T05:16:35.752Z,1022.66
2017-05-21T05:17:16.640Z,1022.67
2017-05-21T05:17:57.576Z,1022.69
2017-05-21T05:18:38.462Z,1022.7
2017-05-21T05:19:19.345Z,1022.73
2017-05-21T05:20:00.240Z,1022.67
2017-05-21T05:20:41.161Z,1022.69
2017-05-21T05:21:22.061Z,1022.69
2017-05-21T05:22:02.952Z,1022.75
2017-05-21T05:22:43.845Z,1022.75
2017-05-21T05:23:24.724Z,1022.74
2017-05-21T05:24:05.619Z,1022.71
2017-05-21T05:24:46.532Z,1022.76
2017-05-21T05:25:27.454Z,1022.74
2017-05-21T05:26:08.336Z,1022.71
2017-05-21T05:26:49.226Z,1022.75
2017-05-21T05:27:30.122Z,1022.79
2017-05-21T05:28:11.004Z,1022.75
2017-05-21T05:28:51.892Z,1022.77
2017-05-21T05:29:32.796Z,1022.77
2017-05-21T05:30:13.679Z,1022.81
2017-05-21T05:30:54.578Z,1022.8
2017-05-21T05:31:35.578Z,1022.78
2017-05-21T05:32:16.465Z,1022.83
2017-05-21T05:32:57.348Z,1022.85
2017-05-21T05:33:38.241Z,1022.87
2017-05-21T05:34:19.128Z,1022.85
2017-05-21T05:35:00.019Z,1022.86
2017-05-21T05:35:40.917Z,1022.89
2017-05-21T05:36:21.806Z,1022.9
2017-05-21T05:37:02.697Z,1022.88
2017-05-21T05:37:43.590Z,1022.89
2017-05-21T05:38:24.478Z,1022.91
2017-05-21T05:39:05.343Z,1022.88
2017-05-21T05:39:46.257Z,1022.87
2017-05-21T05:40:27.161Z,1022.89
2017-05-21T05:41:08.049Z,1022.87
2017-05-21T05:41:48.943Z,1022.9
2017-05-21T05:42:29.843Z,1022.88
2017-05-21T05:43:10.732Z,1022.87
2017-05-21T05:43:51.628Z,1022.86
2017-05-21T05:44:32.511Z,1022.86
2017-05-21T05:45:13.392Z,1022.89
2017-05-21T05:45:54.260Z,1022.88
2017-05-21T05:46:35.149Z,1022.93
2017-05-21T05:47:16.049Z,1022.95
2017-05-21T05:47:56.938Z,1022.93
2017-05-21T05:48:37.864Z,1022.95
2017-05-21T05:49:18.738Z,1022.95
2017-05-21T05:49:59.622Z,1022.98
2017-05-21T05:50:40.514Z,1022.99
2017-05-21T05:51:21.410Z,1022.99
2017-05-21T05:52:02.302Z,1022.98
2017-05-21T05:52:43.191Z,1022.98
2017-05-21T05:53:24.077Z,1022.99
2017-05-21T05:54:04.970Z,1022.95
2017-05-21T05:54:45.868Z,1022.99
2017-05-21T05:55:26.749Z,1023.02
2017-05-21T05:56:07.639Z,1022.98
2017-05-21T05:56:48.535Z,1023
2017-05-21T05:57:29.425Z,1022.97
2017-05-21T05:58:10.312Z,1022.98
2017-05-21T05:58:51.234Z,1022.95
2017-05-21T05:59:32.126Z,1022.96
2017-05-21T06:00:13.044Z,1023
2017-05-21T06:00:53.906Z,1022.97
2017-05-21T06:01:34.810Z,1023
2017-05-21T06:02:15.680Z,1022.97
2017-05-21T06:02:56.570Z,1022.98
2017-05-21T06:03:37.469Z,1022.95
2017-05-21T06:04:18.348Z,1022.99
2017-05-21T06:04:59.245Z,1022.98
2017-05-21T06:05:40.136Z,1023.03
2017-05-21T06:06:21.035Z,1023.07
2017-05-21T06:07:01.925Z,1023.02
2017-05-21T06:07:42.812Z,1023.04
2017-05-21T06:08:23.707Z,1023.05
2017-05-21T06:09:04.593Z,1023.04
2017-05-21T06:09:45.487Z,1023.05
2017-05-21T06:10:26.391Z,1023.1
2017-05-21T06:11:07.283Z,1023.09
2017-05-21T06:11:48.168Z,1023.07
2017-05-21T06:12:29.050Z,1023.09
2017-05-21T06:13:09.946Z,1023.08
2017-05-21T06:13:50.856Z,1023.12
2017-05-21T06:14:31.763Z,1023.1
2017-05-21T06:15:12.666Z,1023.09
2017-05-21T06:15:53.547Z,1023.14
2017-05-21T06:16:34.477Z,1023.16
2017-05-21T06:17:15.355Z,1023.16
2017-05-21T06:17:56.264Z,1023.16
2017-05-21T06:18:37.151Z,1023.17
2017-05-21T06:19:18.039Z,1023.14
2017-05-21T06:19:58.947Z,1023.15
2017-05-21T06:20:39.840Z,1023.16
2017-05-21T06:21:20.736Z,1023.2
2017-05-21T06:22:01.627Z,1023.2
2017-05-21T06:22:43.218Z,1023.24
2017-05-21T06:23:24.111Z,1023.19
2017-05-21T06:24:05.014Z,1023.23
2017-05-21T06:24:45.898Z,1023.22
2017-05-21T06:25:26.800Z,1023.23
2017-05-21T06:26:07.691Z,1023.22
2017-05-21T06:26:48.589Z,1023.23
2017-05-21T06:27:29.494Z,1023.22
2017-05-21T06:28:10.381Z,1023.2
2017-05-21T06:28:51.278Z,1023.23
2017-05-21T06:29:32.188Z,1023.26
2017-05-21T06:30:13.085Z,1023.28
2017-05-21T06:30:53.975Z,1023.21
2017-05-21T06:31:34.878Z,1023.24
2017-05-21T06:32:15.775Z,1023.3
2017-05-21T06:32:56.679Z,1023.27
2017-05-21T06:33:37.576Z,1023.27
2017-05-21T06:34:18.470Z,1023.27
2017-05-21T06:34:59.374Z,1023.25
2017-05-21T06:35:40.264Z,1023.26
2017-05-21T06:36:21.173Z,1023.25
2017-05-21T06:37:02.072Z,1023.21
2017-05-21T06:37:43.005Z,1023.22
2017-05-21T06:38:23.872Z,1023.23
2017-05-21T06:39:04.776Z,1023.23
2017-05-21T06:39:45.688Z,1023.21
2017-05-21T06:40:26.598Z,1023.18
2017-05-21T06:41:07.504Z,1023.22
2017-05-21T06:41:48.411Z,1023.23
2017-05-21T06:42:29.315Z,1023.25
2017-05-21T06:43:10.214Z,1023.23
2017-05-21T06:43:51.121Z,1023.26
2017-05-21T06:44:32.026Z,1023.2
2017-05-21T06:45:12.935Z,1023.18
2017-05-21T06:45:53.852Z,1023.21
2017-05-21T06:46:34.762Z,1023.16
2017-05-21T06:47:15.665Z,1023.19
2017-05-21T06:47:56.576Z,1023.22
2017-05-21T06:48:37.504Z,1023.19
2017-05-21T06:49:18.405Z,1023.22
2017-05-21T06:49:59.370Z,1023.16
2017-05-21T06:50:40.282Z,1023.22
2017-05-21T06:51:21.192Z,1023.22
2017-05-21T06:52:02.098Z,1023.23
2017-05-21T06:52:43.005Z,1023.23
2017-05-21T06:53:23.914Z,1023.22
2017-05-21T06:54:04.809Z,1023.25
2017-05-21T06:54:45.718Z,1023.21
2017-05-21T06:55:26.620Z,1023.22
2017-05-21T06:56:07.516Z,1023.26
2017-05-21T06:56:48.411Z,1023.25
2017-05-21T06:57:29.307Z,1023.25
2017-05-21T06:58:10.235Z,1023.26
2017-05-21T06:58:51.143Z,1023.3
2017-05-21T06:59:32.048Z,1023.28
2017-05-21T07:00:12.942Z,1023.26
2017-05-21T07:00:53.864Z,1023.26
2017-05-21T07:01:34.772Z,1023.27
2017-05-21T07:02:15.675Z,1023.3
2017-05-21T07:02:56.568Z,1023.33
2017-05-21T07:03:37.488Z,1023.36
2017-05-21T07:04:18.386Z,1023.3
2017-05-21T07:04:59.323Z,1023.29
2017-05-21T07:05:40.203Z,1023.3
2017-05-21T07:06:21.121Z,1023.29
2017-05-21T07:07:02.027Z,1023.3
2017-05-21T07:07:42.933Z,1023.29
2017-05-21T07:08:23.830Z,1023.31
2017-05-21T07:09:04.846Z,1023.29
2017-05-21T07:09:45.706Z,1023.29
2017-05-21T07:10:26.616Z,1023.38
2017-05-21T07:11:07.508Z,1023.32
2017-05-21T07:11:48.413Z,1023.37
2017-05-21T07:12:29.330Z,1023.35
2017-05-21T07:13:10.235Z,1023.32
2017-05-21T07:13:51.140Z,1023.34
2017-05-21T07:14:32.055Z,1023.38
2017-05-21T07:15:13.006Z,1023.37
2017-05-21T07:15:53.870Z,1023.33
2017-05-21T07:16:34.769Z,1023.38
2017-05-21T07:17:15.679Z,1023.38
2017-05-21T07:17:56.596Z,1023.41
2017-05-21T07:18:37.503Z,1023.43
2017-05-21T07:19:18.413Z,1023.35
2017-05-21T07:19:59.326Z,1023.37
2017-05-21T07:20:40.232Z,1023.36
2017-05-21T07:21:21.142Z,1023.39
2017-05-21T07:22:02.053Z,1023.41
2017-05-21T07:22:42.956Z,1023.43
2017-05-21T07:23:23.866Z,1023.4
2017-05-21T07:24:04.780Z,1023.42
2017-05-21T07:24:45.684Z,1023.4
2017-05-21T07:25:26.593Z,1023.44
2017-05-21T07:26:07.505Z,1023.44
2017-05-21T07:26:48.422Z,1023.42
2017-05-21T07:27:29.320Z,1023.44
2017-05-21T07:28:10.227Z,1023.44
2017-05-21T07:28:51.142Z,1023.44
2017-05-21T07:29:32.046Z,1023.43
2017-05-21T07:30:12.958Z,1023.42
2017-05-21T07:30:53.868Z,1023.41
2017-05-21T07:31:34.776Z,1023.44
2017-05-21T07:32:15.684Z,1023.43
2017-05-21T07:32:56.579Z,1023.41
2017-05-21T07:33:37.491Z,1023.41
2017-05-21T07:34:18.389Z,1023.45
2017-05-21T07:34:59.298Z,1023.47
2017-05-21T07:35:40.205Z,1023.44
2017-05-21T07:36:21.101Z,1023.43
2017-05-21T07:37:02.022Z,1023.48
2017-05-21T07:37:42.933Z,1023.45
2017-05-21T07:38:23.834Z,1023.42
2017-05-21T07:39:04.742Z,1023.49
2017-05-21T07:39:45.643Z,1023.49
2017-05-21T07:40:26.543Z,1023.42
2017-05-21T07:41:07.464Z,1023.43
2017-05-21T07:41:48.375Z,1023.42
2017-05-21T07:42:29.275Z,1023.42
2017-05-21T07:43:10.175Z,1023.41
2017-05-21T07:43:51.093Z,1023.42
2017-05-21T07:44:32.007Z,1023.42
2017-05-21T07:45:12.912Z,1023.44
2017-05-21T07:45:53.814Z,1023.44
2017-05-21T07:46:34.722Z,1023.48
2017-05-21T07:47:15.634Z,1023.46
2017-05-21T07:47:56.546Z,1023.49
2017-05-21T07:48:37.451Z,1023.47
2017-05-21T07:49:18.366Z,1023.44
2017-05-21T07:49:59.266Z,1023.4
2017-05-21T07:50:40.206Z,1023.43
2017-05-21T07:51:21.070Z,1023.44
2017-05-21T07:52:01.971Z,1023.44
2017-05-21T07:52:42.876Z,1023.43
2017-05-21T07:53:23.779Z,1023.45
2017-05-21T07:54:04.667Z,1023.41
2017-05-21T07:54:45.565Z,1023.38
2017-05-21T07:55:26.458Z,1023.41
2017-05-21T07:56:07.355Z,1023.43
2017-05-21T07:56:48.262Z,1023.39
2017-05-21T07:57:29.163Z,1023.45
2017-05-21T07:58:10.068Z,1023.5
2017-05-21T07:58:50.971Z,1023.44
2017-05-21T07:59:31.885Z,1023.47
2017-05-21T08:00:12.803Z,1023.51
2017-05-21T08:00:53.704Z,1023.49
2017-05-21T08:01:34.588Z,1023.47
2017-05-21T08:02:15.491Z,1023.51
2017-05-21T08:02:56.426Z,1023.56
2017-05-21T08:03:37.342Z,1023.55
2017-05-21T08:04:18.270Z,1023.52
2017-05-21T08:04:59.196Z,1023.5
2017-05-21T08:05:40.108Z,1023.47
2017-05-21T08:06:21.047Z,1023.48
2017-05-21T08:07:01.970Z,1023.48
2017-05-21T08:07:42.876Z,1023.45
2017-05-21T08:08:23.775Z,1023.45
2017-05-21T08:09:04.684Z,1023.48
2017-05-21T08:09:45.591Z,1023.49
2017-05-21T08:10:26.529Z,1023.45
2017-05-21T08:11:07.436Z,1023.52
2017-05-21T08:11:48.344Z,1023.53
2017-05-21T08:12:29.254Z,1023.5
2017-05-21T08:13:10.172Z,1023.48
2017-05-21T08:13:51.107Z,1023.5
2017-05-21T08:14:32.005Z,1023.48
2017-05-21T08:15:12.917Z,1023.48
2017-05-21T08:15:53.830Z,1023.49
2017-05-21T08:16:34.735Z,1023.51
2017-05-21T08:17:15.651Z,1023.46
2017-05-21T08:17:56.556Z,1023.48
2017-05-21T08:18:37.472Z,1023.49
2017-05-21T08:19:18.367Z,1023.53
2017-05-21T08:19:59.297Z,1023.48